Time;durP1;ratioP1;P1;durP2;ratioP2;P2;SDS_P1;SDS_P2;PMS_P1;PMS_P2;Temp;Humidity;BMP_temperature;BMP_pressure;BME280_temperature;BME280_humidity;BME280_pressure;Samples;Min_cycle;Max_cycle;Signal;HPM_P1;HPM_P2
2021/11/08 00:00:00;;;;;;;7.00;2.40;;;;;;;;;;5097790;28;20940;-72
2021/11/08 00:02:31;;;;;;;13.80;3.33;;;;;;;;;;5097595;28;20542;-71
2021/11/08 00:04:59;;;;;;;6.30;2.50;;;;;;;;;;5098309;28;20455;-69
2021/11/08 00:07:27;;;;;;;10.47;2.90;;;;;;;;;;5097435;28;20697;-71
2021/11/08 00:09:56;;;;;;;5.63;2.63;;;;;;;;;;5097443;28;20463;-71
2021/11/08 00:12:24;;;;;;;10.67;2.50;;;;;;;;;;5097520;28;20456;-71
2021/11/08 00:14:56;;;;;;;7.00;2.60;;;;;;;;;;5096907;28;20478;-71
2021/11/08 00:17:40;;;;;;;3.23;2.07;;;;;;;;;;5097877;28;20515;-71
2021/11/08 00:20:12;;;;;;;3.73;1.63;;;;;;;;;;5097641;28;20459;-71
2021/11/08 00:22:40;;;;;;;5.77;3.00;;;;;;;;;;5097588;28;20855;-71
2021/11/08 00:25:08;;;;;;;7.80;2.07;;;;;;;;;;5097657;28;20746;-71
2021/11/08 00:27:37;;;;;;;10.43;2.40;;;;;;;;;;5097265;28;20527;-71
2021/11/08 00:30:08;;;;;;;11.60;1.90;;;;;;;;;;5097368;28;20592;-71
2021/11/08 00:32:39;;;;;;;5.40;2.20;;;;;;;;;;5097077;28;20843;-73
2021/11/08 00:35:07;;;;;;;5.03;2.40;;;;;;;;;;5097345;28;20463;-71
2021/11/08 00:37:37;;;;;;;2.87;2.27;;;;;;;;;;5097655;28;20918;-71
2021/11/08 00:40:06;;;;;;;4.50;2.60;;;;;;;;;;5096956;28;20455;-71
2021/11/08 00:42:34;;;;;;;12.97;3.80;;;;;;;;;;5097309;28;20455;-71
2021/11/08 00:45:01;;;;;;;9.73;2.70;;;;;;;;;;5096808;28;20459;-71
2021/11/08 00:47:29;;;;;;;11.30;3.00;;;;;;;;;;5097474;28;20442;-71
2021/11/08 00:49:57;;;;;;;3.10;1.80;;;;;;;;;;5098112;28;20459;-71
2021/11/08 00:52:25;;;;;;;6.83;2.00;;;;;;;;;;5097154;28;20455;-71
2021/11/08 00:54:54;;;;;;;9.73;2.60;;;;;;;;;;5097398;28;20466;-71
2021/11/08 00:57:25;;;;;;;3.87;2.43;;;;;;;;;;5096904;28;20549;-71
2021/11/08 00:59:54;;;;;;;9.43;2.20;;;;;;;;;;5097379;28;20464;-71
2021/11/08 01:02:25;;;;;;;6.10;2.07;;;;;;;;;;5097587;28;20771;-71
2021/11/08 01:04:53;;;;;;;6.23;2.50;;;;;;;;;;5096651;28;20836;-71
2021/11/08 01:07:21;;;;;;;5.67;2.20;;;;;;;;;;5096552;28;20452;-70
2021/11/08 01:09:49;;;;;;;7.43;2.07;;;;;;;;;;5097504;28;20871;-71
2021/11/08 01:12:23;;;;;;;17.97;3.27;;;;;;;;;;5097140;28;20455;-71
2021/11/08 01:14:51;;;;;;;5.03;1.90;;;;;;;;;;5096749;28;20475;-71
2021/11/08 01:17:25;;;;;;;5.57;1.43;;;;;;;;;;5096887;28;20561;-70
2021/11/08 01:19:52;;;;;;;6.60;2.27;;;;;;;;;;5095856;28;20470;-71
2021/11/08 01:22:21;;;;;;;10.80;2.83;;;;;;;;;;5096738;28;20452;-71
2021/11/08 01:24:53;;;;;;;7.40;2.23;;;;;;;;;;5096609;28;20557;-71
2021/11/08 01:27:25;;;;;;;7.53;1.60;;;;;;;;;;5096476;28;20839;-71
2021/11/08 01:29:52;;;;;;;2.90;1.70;;;;;;;;;;5096729;28;20802;-71
2021/11/08 01:32:20;;;;;;;9.27;2.00;;;;;;;;;;5097840;28;20448;-71
2021/11/08 01:34:48;;;;;;;11.03;2.43;;;;;;;;;;5096489;28;20539;-71
2021/11/08 01:37:19;;;;;;;3.77;1.43;;;;;;;;;;5096318;28;20579;-71
2021/11/08 01:39:46;;;;;;;9.13;2.53;;;;;;;;;;5104969;28;20485;-71
2021/11/08 01:42:15;;;;;;;10.83;2.27;;;;;;;;;;5116504;28;20451;-71
2021/11/08 01:44:44;;;;;;;5.17;1.37;;;;;;;;;;5116826;28;20750;-71
2021/11/08 01:47:12;;;;;;;11.50;1.97;;;;;;;;;;5116773;28;20447;-72
2021/11/08 01:49:40;;;;;;;8.83;1.53;;;;;;;;;;5116687;28;20862;-71
2021/11/08 01:52:09;;;;;;;3.17;1.10;;;;;;;;;;5116077;28;20469;-70
2021/11/08 01:54:38;;;;;;;7.50;1.30;;;;;;;;;;5116225;28;20545;-71
2021/11/08 01:57:07;;;;;;;6.17;1.67;;;;;;;;;;5116036;28;20551;-71
2021/11/08 01:59:34;;;;;;;6.60;1.60;;;;;;;;;;5116677;28;20462;-71
2021/11/08 02:02:04;;;;;;;3.83;1.70;;;;;;;;;;5115798;28;20516;-71
2021/11/08 02:04:32;;;;;;;7.20;1.93;;;;;;;;;;5115542;28;20459;-72
2021/11/08 02:07:01;;;;;;;3.10;1.00;;;;;;;;;;5116527;28;20475;-71
2021/11/08 02:09:29;;;;;;;9.67;1.70;;;;;;;;;;5115590;28;20469;-70
2021/11/08 02:11:57;;;;;;;8.60;2.37;;;;;;;;;;5115533;28;20457;-71
2021/11/08 02:14:28;;;;;;;11.47;2.37;;;;;;;;;;5116166;28;20465;-70
2021/11/08 02:16:56;;;;;;;5.50;1.90;;;;;;;;;;5115408;28;20482;-70
2021/11/08 02:19:27;;;;;;;7.40;2.10;;;;;;;;;;5115733;28;20498;-71
2021/11/08 02:21:59;;;;;;;12.97;4.10;;;;;;;;;;5115809;28;20451;-71
2021/11/08 02:24:28;;;;;;;10.30;2.27;;;;;;;;;;5115743;28;20862;-70
2021/11/08 02:26:56;;;;;;;3.47;1.50;;;;;;;;;;5115862;28;20458;-70
2021/11/08 02:29:24;;;;;;;11.40;2.80;;;;;;;;;;5115911;28;20677;-71
2021/11/08 02:31:52;;;;;;;12.17;2.43;;;;;;;;;;5115866;28;20819;-70
2021/11/08 02:34:19;;;;;;;5.97;1.33;;;;;;;;;;5102310;28;20462;-70
2021/11/08 02:36:48;;;;;;;14.50;2.07;;;;;;;;;;5094923;28;22425;-70
2021/11/08 02:39:24;;;;;;;5.07;1.43;;;;;;;;;;5095555;28;20697;-70
2021/11/08 02:41:52;;;;;;;5.20;1.10;;;;;;;;;;5095064;28;20501;-71
2021/11/08 02:44:19;;;;;;;7.30;1.73;;;;;;;;;;5095784;28;20447;-71
2021/11/08 02:46:48;;;;;;;8.10;2.50;;;;;;;;;;5094489;28;20451;-71
2021/11/08 02:49:17;;;;;;;8.00;2.53;;;;;;;;;;5094746;28;20517;-71
2021/11/08 02:51:48;;;;;;;8.30;1.97;;;;;;;;;;5094369;28;20444;-71
2021/11/08 02:54:26;;;;;;;8.50;1.67;;;;;;;;;;5094410;28;20791;-71
2021/11/08 02:56:53;;;;;;;2.57;1.00;;;;;;;;;;5094345;28;20448;-71
2021/11/08 02:59:22;;;;;;;8.30;2.83;;;;;;;;;;5094435;28;21096;-70
2021/11/08 03:01:50;;;;;;;7.10;1.67;;;;;;;;;;5095055;28;20712;-71
2021/11/08 03:04:23;;;;;;;3.83;1.27;;;;;;;;;;5096911;28;20459;-71
2021/11/08 03:06:51;;;;;;;5.10;2.10;;;;;;;;;;5099020;28;20509;-70
2021/11/08 03:09:21;;;;;;;10.63;1.60;;;;;;;;;;5098356;28;20460;-71
2021/11/08 03:11:49;;;;;;;5.53;1.63;;;;;;;;;;5098703;28;20474;-71
2021/11/08 03:14:20;;;;;;;11.10;1.60;;;;;;;;;;5098870;28;20451;-71
2021/11/08 03:16:50;;;;;;;5.90;1.67;;;;;;;;;;5097998;28;20534;-71
2021/11/08 03:19:23;;;;;;;10.57;2.20;;;;;;;;;;5098729;28;20910;-71
2021/11/08 03:21:52;;;;;;;3.10;1.40;;;;;;;;;;5098578;28;20483;-71
2021/11/08 03:24:24;;;;;;;3.43;1.37;;;;;;;;;;5100392;28;20517;-71
2021/11/08 03:26:54;;;;;;;3.73;1.70;;;;;;;;;;5098867;28;20524;-71
2021/11/08 03:29:22;;;;;;;9.23;2.37;;;;;;;;;;5118522;28;20898;-71
2021/11/08 03:31:51;;;;;;;3.17;1.80;;;;;;;;;;5119929;28;20458;-71
2021/11/08 03:34:19;;;;;;;5.60;2.67;;;;;;;;;;5106172;28;20459;-71
2021/11/08 03:36:49;;;;;;;7.37;1.50;;;;;;;;;;5099105;28;20735;-71
2021/11/08 03:39:17;;;;;;;4.23;2.40;;;;;;;;;;5099530;28;20890;-71
2021/11/08 03:41:46;;;;;;;7.63;2.00;;;;;;;;;;5098105;28;20494;-71
2021/11/08 03:44:14;;;;;;;5.30;1.80;;;;;;;;;;5098216;28;20448;-71
2021/11/08 03:46:42;;;;;;;7.57;2.37;;;;;;;;;;5098743;28;20485;-71
2021/11/08 03:49:10;;;;;;;11.43;2.33;;;;;;;;;;5099318;28;20447;-70
2021/11/08 03:51:39;;;;;;;9.57;2.37;;;;;;;;;;5099087;28;20465;-72
2021/11/08 03:54:08;;;;;;;4.70;1.90;;;;;;;;;;5099036;28;20447;-72
2021/11/08 03:56:36;;;;;;;8.10;2.50;;;;;;;;;;5098494;28;20491;-71
2021/11/08 03:59:06;;;;;;;4.50;1.63;;;;;;;;;;5097571;28;20487;-70
2021/11/08 04:01:36;;;;;;;9.87;3.30;;;;;;;;;;5099135;28;20459;-70
2021/11/08 04:04:04;;;;;;;3.70;2.10;;;;;;;;;;5098136;28;20455;-71
2021/11/08 04:06:32;;;;;;;5.53;2.67;;;;;;;;;;5098641;28;20495;-72
2021/11/08 04:09:00;;;;;;;13.27;2.80;;;;;;;;;;5098126;28;20452;-72
2021/11/08 04:11:29;;;;;;;8.93;3.80;;;;;;;;;;5098493;28;20479;-72
2021/11/08 04:13:58;;;;;;;8.30;3.30;;;;;;;;;;5097967;28;20902;-71
2021/11/08 04:16:29;;;;;;;4.80;2.20;;;;;;;;;;5097135;28;20513;-72
2021/11/08 04:18:57;;;;;;;7.37;2.90;;;;;;;;;;5098177;28;20479;-71
2021/11/08 04:21:26;;;;;;;5.10;2.23;;;;;;;;;;5098299;28;20460;-71
2021/11/08 04:23:54;;;;;;;7.70;3.70;;;;;;;;;;5097533;28;20554;-72
2021/11/08 04:26:25;;;;;;;6.50;2.00;;;;;;;;;;5097634;28;20459;-71
2021/11/08 04:28:54;;;;;;;9.47;3.40;;;;;;;;;;5098839;28;20440;-71
2021/11/08 04:31:22;;;;;;;6.37;2.20;;;;;;;;;;5098177;28;20549;-72
2021/11/08 04:33:54;;;;;;;7.23;2.30;;;;;;;;;;5097254;28;20455;-71
2021/11/08 04:39:19;;;;;;;10.33;3.37;;;;;;;;;;5080849;28;20494;-71
2021/11/08 04:41:53;;;;;;;14.63;2.97;;;;;;;;;;5097423;28;20883;-71
2021/11/08 04:44:47;;;;;;;6.37;2.90;;;;;;;;;;5097831;28;20769;-71
2021/11/08 04:50:26;;;;;;;11.23;3.13;;;;;;;;;;5097524;28;20424;-70
2021/11/08 04:53:17;;;;;;;10.53;4.53;;;;;;;;;;5098187;28;20487;-72
2021/11/08 04:56:11;;;;;;;6.50;2.50;;;;;;;;;;5097973;28;20463;-71
2021/11/08 05:24:11;;;;;;;10.30;5.07;;;;;;;;;;5079956;28;20481;-70
2021/11/08 05:32:09;;;;;;;11.70;4.30;;;;;;;;;;5116937;28;20539;-71
2021/11/08 05:34:37;;;;;;;11.23;4.80;;;;;;;;;;5116912;28;20450;-71
2021/11/08 05:37:08;;;;;;;8.93;4.30;;;;;;;;;;5115971;28;20443;-71
2021/11/08 05:39:38;;;;;;;10.03;4.67;;;;;;;;;;5117084;28;20486;-71
2021/11/08 05:42:06;;;;;;;12.20;4.50;;;;;;;;;;5115870;28;20557;-71
2021/11/08 05:44:37;;;;;;;10.70;4.50;;;;;;;;;;5116664;28;20465;-71
2021/11/08 05:47:05;;;;;;;14.83;5.30;;;;;;;;;;5108176;28;20861;-71
2021/11/08 05:49:33;;;;;;;7.20;3.67;;;;;;;;;;5096018;28;20456;-71
2021/11/08 05:52:02;;;;;;;20.53;4.60;;;;;;;;;;5095173;28;20452;-71
2021/11/08 05:54:30;;;;;;;4.50;2.80;;;;;;;;;;5095763;28;20871;-71
2021/11/08 06:00:24;;;;;;;14.27;2.90;;;;;;;;;;5057702;28;20439;-71
2021/11/08 06:49:46;;;;;;;12.70;3.70;;;;;;;;;;5091955;28;20594;-70
2021/11/08 06:52:14;;;;;;;16.70;3.50;;;;;;;;;;5093083;28;20440;-70
2021/11/08 06:54:43;;;;;;;10.80;3.53;;;;;;;;;;5092819;28;20459;-70
2021/11/08 06:57:14;;;;;;;6.07;3.33;;;;;;;;;;5093794;28;20458;-70
2021/11/08 06:59:42;;;;;;;12.70;5.30;;;;;;;;;;5098106;28;20965;-70
2021/11/08 07:02:11;;;;;;;14.60;3.60;;;;;;;;;;5095131;28;20451;-70
2021/11/08 07:04:39;;;;;;;9.33;4.73;;;;;;;;;;5093058;28;20458;-70
2021/11/08 07:07:09;;;;;;;7.90;3.87;;;;;;;;;;5092519;28;20452;-70
2021/11/08 07:09:44;;;;;;;7.83;4.13;;;;;;;;;;5092206;28;20949;-71
2021/11/08 07:12:22;;;;;;;7.40;4.90;;;;;;;;;;5092194;28;20454;-71
2021/11/08 07:14:52;;;;;;;12.20;2.20;;;;;;;;;;5100041;28;20877;-71
2021/11/08 07:17:21;;;;;;;5.73;2.43;;;;;;;;;;5093591;28;20448;-71
2021/11/08 07:19:52;;;;;;;10.87;3.83;;;;;;;;;;5100489;28;20487;-71
2021/11/08 07:22:22;;;;;;;17.03;4.53;;;;;;;;;;5097228;28;20549;-72
2021/11/08 07:24:52;;;;;;;9.53;3.00;;;;;;;;;;5104381;28;20483;-71
2021/11/08 07:27:23;;;;;;;12.13;3.73;;;;;;;;;;5109988;28;20516;-72
2021/11/08 07:29:51;;;;;;;13.40;3.63;;;;;;;;;;5106806;28;20741;-72
2021/11/08 07:32:19;;;;;;;9.90;3.70;;;;;;;;;;5093725;28;20532;-71
2021/11/08 07:34:50;;;;;;;9.43;3.30;;;;;;;;;;5092635;28;20537;-70
2021/11/08 07:37:18;;;;;;;6.50;3.87;;;;;;;;;;5101054;28;20482;-71
2021/11/08 07:39:46;;;;;;;4.63;2.10;;;;;;;;;;5113823;28;20513;-71
2021/11/08 07:42:14;;;;;;;6.57;3.87;;;;;;;;;;5112952;28;20567;-70
2021/11/08 07:44:42;;;;;;;12.80;2.83;;;;;;;;;;5114777;28;20687;-70
2021/11/08 07:47:09;;;;;;;9.80;4.77;;;;;;;;;;5107939;28;20498;-69
2021/11/08 07:49:38;;;;;;;8.80;4.50;;;;;;;;;;5093416;28;20453;-70
2021/11/08 07:52:09;;;;;;;7.40;3.93;;;;;;;;;;5096078;28;20473;-71
2021/11/08 07:54:42;;;;;;;7.20;3.70;;;;;;;;;;5096581;28;20455;-71
2021/11/08 07:57:17;;;;;;;6.43;4.50;;;;;;;;;;5097265;28;20530;-71
2021/11/08 07:59:48;;;;;;;8.37;2.93;;;;;;;;;;5098084;28;20490;-72
2021/11/08 08:02:16;;;;;;;11.40;2.43;;;;;;;;;;5097892;28;20838;-71
2021/11/08 08:04:44;;;;;;;8.80;3.83;;;;;;;;;;5098301;28;20917;-70
2021/11/08 08:07:15;;;;;;;10.80;2.37;;;;;;;;;;5109780;28;20723;-71
2021/11/08 08:09:44;;;;;;;11.43;3.27;;;;;;;;;;5117610;28;20855;-70
2021/11/08 08:12:15;;;;;;;9.33;2.47;;;;;;;;;;5097996;28;20460;-71
2021/11/08 08:14:43;;;;;;;8.37;2.73;;;;;;;;;;5096367;28;20466;-70
2021/11/08 08:17:21;;;;;;;5.47;2.10;;;;;;;;;;5097846;28;20458;-71
2021/11/08 08:19:49;;;;;;;10.90;2.47;;;;;;;;;;5097469;28;20493;-71
2021/11/08 08:22:21;;;;;;;7.13;2.07;;;;;;;;;;5097478;28;20455;-70
2021/11/08 08:24:48;;;;;;;7.73;4.20;;;;;;;;;;5099889;28;20790;-69
2021/11/08 08:27:16;;;;;;;10.47;3.70;;;;;;;;;;5097496;28;20543;-72
2021/11/08 08:29:46;;;;;;;8.43;4.40;;;;;;;;;;5098964;28;20455;-71
2021/11/08 08:32:17;;;;;;;5.50;2.60;;;;;;;;;;5097265;28;20452;-70
2021/11/08 08:34:48;;;;;;;7.10;3.07;;;;;;;;;;5097670;28;20844;-71
2021/11/08 08:37:16;;;;;;;6.73;2.27;;;;;;;;;;5095490;28;20455;-71
2021/11/08 08:39:45;;;;;;;6.60;3.13;;;;;;;;;;5101895;28;20795;-70
2021/11/08 08:42:13;;;;;;;7.57;3.40;;;;;;;;;;5095888;28;20548;-71
2021/11/08 08:44:41;;;;;;;10.90;2.83;;;;;;;;;;5097719;28;20929;-70
2021/11/08 08:47:10;;;;;;;4.00;3.00;;;;;;;;;;5103967;28;20451;-70
2021/11/08 08:49:37;;;;;;;5.63;3.07;;;;;;;;;;5108722;28;20459;-72
2021/11/08 08:52:08;;;;;;;7.30;3.33;;;;;;;;;;5095618;28;20443;-72
2021/11/08 08:54:36;;;;;;;15.70;4.27;;;;;;;;;;5105144;28;20464;-71
2021/11/08 08:57:06;;;;;;;4.67;2.27;;;;;;;;;;5109962;28;20478;-71
2021/11/08 08:59:34;;;;;;;9.00;3.60;;;;;;;;;;5114334;28;20515;-71
2021/11/08 09:02:02;;;;;;;16.13;2.73;;;;;;;;;;5115933;28;20473;-72
2021/11/08 09:04:31;;;;;;;5.87;2.87;;;;;;;;;;5115875;28;20477;-72
2021/11/08 09:07:02;;;;;;;5.50;1.70;;;;;;;;;;5115157;28;20483;-71
2021/11/08 09:09:30;;;;;;;6.23;3.70;;;;;;;;;;5110797;28;20835;-71
2021/11/08 09:11:58;;;;;;;9.60;2.70;;;;;;;;;;5117370;28;20454;-71
2021/11/08 09:14:30;;;;;;;8.33;3.40;;;;;;;;;;5117034;28;20453;-71
2021/11/08 09:17:01;;;;;;;9.23;3.10;;;;;;;;;;5116098;28;20461;-72
2021/11/08 09:19:30;;;;;;;16.40;4.27;;;;;;;;;;5116622;28;20478;-72
2021/11/08 09:21:58;;;;;;;5.67;3.50;;;;;;;;;;5095299;28;20475;-72
2021/11/08 09:24:26;;;;;;;10.20;3.70;;;;;;;;;;5097316;28;20520;-72
2021/11/08 09:26:57;;;;;;;4.20;2.07;;;;;;;;;;5095067;28;20876;-71
2021/11/08 09:29:50;;;;;;;3.57;2.10;;;;;;;;;;5096857;28;20723;-73
2021/11/08 09:32:23;;;;;;;11.33;3.03;;;;;;;;;;5090913;28;20460;-73
2021/11/08 09:34:52;;;;;;;10.33;3.37;;;;;;;;;;5094102;28;20444;-73
2021/11/08 09:37:20;;;;;;;3.17;2.20;;;;;;;;;;5101498;28;20460;-72
2021/11/08 09:39:53;;;;;;;9.20;5.23;;;;;;;;;;5096941;28;20490;-71
2021/11/08 09:42:27;;;;;;;10.97;4.43;;;;;;;;;;5095259;28;20525;-72
2021/11/08 09:44:57;;;;;;;3.73;3.07;;;;;;;;;;5116796;28;20873;-71
2021/11/08 09:47:29;;;;;;;11.90;5.63;;;;;;;;;;5115425;28;20458;-72
2021/11/08 09:50:06;;;;;;;6.10;3.27;;;;;;;;;;5116602;28;20850;-72
2021/11/08 09:52:37;;;;;;;13.97;5.27;;;;;;;;;;5117338;28;20509;-71
2021/11/08 09:55:09;;;;;;;7.93;4.40;;;;;;;;;;5113150;28;20449;-73
2021/11/08 09:57:40;;;;;;;4.60;2.90;;;;;;;;;;5116749;28;20855;-71
2021/11/08 10:00:17;;;;;;;11.33;3.77;;;;;;;;;;5110591;28;20478;-70
2021/11/08 10:02:54;;;;;;;12.20;8.53;;;;;;;;;;5115193;28;20465;-71
2021/11/08 10:05:22;;;;;;;8.90;4.93;;;;;;;;;;5115969;28;20450;-72
2021/11/08 10:07:51;;;;;;;8.57;6.60;;;;;;;;;;5115913;28;20937;-72
2021/11/08 10:10:25;;;;;;;9.70;6.47;;;;;;;;;;5114555;28;20923;-71
2021/11/08 10:12:56;;;;;;;8.07;5.00;;;;;;;;;;5116092;28;20918;-70
2021/11/08 10:15:30;;;;;;;17.37;5.10;;;;;;;;;;5094275;28;21023;-72
2021/11/08 10:17:58;;;;;;;6.57;2.30;;;;;;;;;;5094423;28;20551;-71
2021/11/08 10:20:32;;;;;;;8.83;4.30;;;;;;;;;;5095066;28;20487;-71
2021/11/08 10:23:01;;;;;;;6.47;4.10;;;;;;;;;;5094536;28;20443;-71
2021/11/08 10:25:30;;;;;;;6.23;2.20;;;;;;;;;;5094841;28;20462;-72
2021/11/08 10:27:58;;;;;;;8.50;2.70;;;;;;;;;;5096429;28;20509;-70
2021/11/08 10:30:29;;;;;;;7.30;3.27;;;;;;;;;;5096087;28;20443;-72
2021/11/08 10:33:13;;;;;;;5.43;1.80;;;;;;;;;;5095423;28;20713;-70
2021/11/08 10:35:49;;;;;;;8.00;4.13;;;;;;;;;;5096720;28;20459;-71
2021/11/08 10:38:17;;;;;;;7.93;4.63;;;;;;;;;;5094945;28;20447;-71
2021/11/08 10:40:48;;;;;;;7.93;3.63;;;;;;;;;;5111137;28;20933;-71
2021/11/08 10:43:16;;;;;;;14.73;4.83;;;;;;;;;;5095769;28;20462;-72
2021/11/08 10:45:52;;;;;;;13.00;6.20;;;;;;;;;;5094078;28;20836;-72
2021/11/08 10:48:24;;;;;;;6.63;3.80;;;;;;;;;;5103938;28;20931;-71
2021/11/08 10:51:18;;;;;;;9.23;5.23;;;;;;;;;;5094798;28;20856;-71
2021/11/08 10:53:50;;;;;;;6.50;3.80;;;;;;;;;;5094006;28;20525;-72
2021/11/08 10:56:28;;;;;;;5.17;2.30;;;;;;;;;;5094830;28;20455;-72
2021/11/08 10:59:09;;;;;;;10.27;5.93;;;;;;;;;;5094790;28;20917;-71
2021/11/08 11:01:56;;;;;;;6.67;4.00;;;;;;;;;;5095188;28;20806;-72
2021/11/08 11:04:55;;;;;;;8.57;3.73;;;;;;;;;;5093534;28;21133;-72
2021/11/08 11:07:47;;;;;;;9.67;4.47;;;;;;;;;;5095363;28;20455;-72
2021/11/08 11:10:17;;;;;;;5.33;2.40;;;;;;;;;;5093560;28;20531;-71
2021/11/08 11:12:46;;;;;;;7.20;4.53;;;;;;;;;;5094417;28;20456;-71
2021/11/08 11:15:16;;;;;;;3.87;2.90;;;;;;;;;;5095140;28;20803;-72
2021/11/08 11:17:46;;;;;;;9.33;5.17;;;;;;;;;;5099768;28;20526;-71
2021/11/08 11:20:30;;;;;;;7.70;3.10;;;;;;;;;;5097593;28;20477;-71
2021/11/08 11:23:04;;;;;;;8.70;3.63;;;;;;;;;;5115473;28;20455;-72
2021/11/08 11:25:39;;;;;;;14.10;6.67;;;;;;;;;;5114126;28;20453;-71
2021/11/08 11:28:07;;;;;;;9.93;6.13;;;;;;;;;;5113778;28;20443;-72
2021/11/08 11:30:37;;;;;;;12.60;6.40;;;;;;;;;;5099304;28;20530;-70
2021/11/08 11:33:12;;;;;;;6.27;5.67;;;;;;;;;;5118769;28;20815;-70
2021/11/08 11:36:12;;;;;;;15.00;5.67;;;;;;;;;;5118616;28;20482;-72
2021/11/08 11:39:01;;;;;;;12.27;4.67;;;;;;;;;;5120160;28;20470;-74
2021/11/08 11:41:35;;;;;;;8.63;3.70;;;;;;;;;;5119299;28;20836;-72
2021/11/08 11:44:09;;;;;;;6.30;3.43;;;;;;;;;;5113334;28;21022;-72
2021/11/08 11:46:45;;;;;;;8.70;4.93;;;;;;;;;;5111414;28;20465;-72
2021/11/08 11:49:26;;;;;;;7.40;1.80;;;;;;;;;;5119287;28;20438;-71
2021/11/08 11:52:04;;;;;;;7.17;2.70;;;;;;;;;;5099992;28;20489;-72
2021/11/08 11:54:48;;;;;;;5.00;2.57;;;;;;;;;;5098824;28;21004;-72
2021/11/08 11:57:16;;;;;;;9.90;5.23;;;;;;;;;;5097136;28;20570;-72
2021/11/08 11:59:44;;;;;;;13.63;2.80;;;;;;;;;;5097685;28;20566;-72
2021/11/08 12:02:20;;;;;;;9.10;5.13;;;;;;;;;;5097259;28;20457;-73
2021/11/08 12:04:48;;;;;;;11.40;4.90;;;;;;;;;;5097956;28;20451;-71
2021/11/08 12:07:18;;;;;;;12.80;7.10;;;;;;;;;;5102010;28;20461;-72
2021/11/08 12:09:53;;;;;;;12.33;5.50;;;;;;;;;;5112212;28;20448;-72
2021/11/08 12:12:25;;;;;;;8.70;5.33;;;;;;;;;;5098579;28;20816;-71
2021/11/08 12:15:07;;;;;;;4.87;3.00;;;;;;;;;;5098862;28;20866;-72
2021/11/08 12:17:42;;;;;;;14.43;5.83;;;;;;;;;;5097746;28;20439;-72
2021/11/08 12:20:13;;;;;;;15.63;5.70;;;;;;;;;;5100038;28;20478;-72
2021/11/08 12:23:05;;;;;;;11.47;6.73;;;;;;;;;;5096447;28;20788;-72
2021/11/08 12:25:46;;;;;;;8.80;4.57;;;;;;;;;;5096252;28;20452;-73
2021/11/08 12:28:16;;;;;;;8.47;3.73;;;;;;;;;;5094882;28;20464;-72
2021/11/08 12:30:45;;;;;;;8.20;6.03;;;;;;;;;;5096453;28;20874;-72
2021/11/08 12:33:26;;;;;;;14.73;6.00;;;;;;;;;;5095645;28;21136;-72
2021/11/08 12:35:55;;;;;;;18.60;6.80;;;;;;;;;;5094824;28;20504;-72
2021/11/08 12:38:28;;;;;;;13.90;5.33;;;;;;;;;;5096185;28;20459;-72
2021/11/08 12:41:17;;;;;;;12.33;6.97;;;;;;;;;;5096009;28;20471;-71
2021/11/08 12:43:56;;;;;;;7.13;3.37;;;;;;;;;;5097319;28;20463;-73
2021/11/08 12:46:35;;;;;;;9.70;4.00;;;;;;;;;;5096475;28;20455;-73
2021/11/08 12:49:15;;;;;;;12.53;7.07;;;;;;;;;;5097996;28;20465;-72
2021/11/08 12:51:52;;;;;;;8.23;4.87;;;;;;;;;;5096584;28;20443;-72
2021/11/08 12:54:23;;;;;;;9.60;6.73;;;;;;;;;;5095502;28;20459;-72
2021/11/08 12:56:54;;;;;;;10.53;3.70;;;;;;;;;;5095706;28;20455;-72
2021/11/08 13:02:23;;;;;;;7.63;3.70;;;;;;;;;;5094694;28;20435;-73
2021/11/08 13:04:53;;;;;;;8.13;5.07;;;;;;;;;;5096837;28;20447;-73
2021/11/08 13:07:25;;;;;;;5.33;3.47;;;;;;;;;;5097302;28;20455;-72
2021/11/08 13:09:55;;;;;;;6.40;2.30;;;;;;;;;;5095325;28;20451;-73
2021/11/08 13:12:31;;;;;;;8.10;3.23;;;;;;;;;;5097255;28;21181;-73
2021/11/08 13:15:12;;;;;;;7.53;3.93;;;;;;;;;;5097076;28;20439;-73
2021/11/08 13:17:54;;;;;;;6.87;3.03;;;;;;;;;;5098255;28;20523;-73
2021/11/08 13:20:26;;;;;;;8.30;4.13;;;;;;;;;;5096383;28;21024;-73
2021/11/08 13:22:58;;;;;;;6.57;3.90;;;;;;;;;;5095524;28;20946;-72
2021/11/08 13:25:41;;;;;;;10.10;5.00;;;;;;;;;;5096366;28;20440;-73
2021/11/08 13:28:16;;;;;;;5.77;2.70;;;;;;;;;;5100102;28;21086;-73
2021/11/08 13:30:45;;;;;;;5.60;3.53;;;;;;;;;;5115392;28;20459;-73
2021/11/08 13:33:30;;;;;;;8.97;4.57;;;;;;;;;;5096538;28;20458;-73
2021/11/08 13:36:05;;;;;;;4.43;3.67;;;;;;;;;;5106834;28;20442;-73
2021/11/08 13:38:34;;;;;;;7.03;5.23;;;;;;;;;;5101489;28;20854;-73
2021/11/08 13:41:15;;;;;;;8.20;5.90;;;;;;;;;;5106392;28;20478;-73
2021/11/08 13:43:46;;;;;;;14.37;3.80;;;;;;;;;;5105535;28;20475;-73
2021/11/08 13:46:19;;;;;;;8.90;6.60;;;;;;;;;;5102195;28;20553;-72
2021/11/08 13:48:48;;;;;;;12.77;3.83;;;;;;;;;;5108145;28;20520;-73
2021/11/08 13:51:24;;;;;;;5.07;3.33;;;;;;;;;;5110309;28;20539;-72
2021/11/08 13:54:05;;;;;;;4.43;2.30;;;;;;;;;;5099256;28;20518;-72
2021/11/08 13:56:40;;;;;;;5.10;3.93;;;;;;;;;;5097474;28;20439;-72
2021/11/08 13:59:14;;;;;;;6.80;4.40;;;;;;;;;;5097765;28;20504;-73
2021/11/08 14:01:50;;;;;;;9.90;5.43;;;;;;;;;;5102892;28;20489;-71
2021/11/08 14:04:29;;;;;;;8.77;3.10;;;;;;;;;;5107504;28;20451;-71
2021/11/08 14:06:58;;;;;;;7.40;2.63;;;;;;;;;;5106018;28;20490;-73
2021/11/08 14:09:34;;;;;;;11.33;6.20;;;;;;;;;;5105600;28;20530;-72
2021/11/08 14:12:13;;;;;;;8.40;4.10;;;;;;;;;;5114562;28;20447;-72
2021/11/08 14:14:48;;;;;;;11.70;4.47;;;;;;;;;;5101512;28;20481;-72
2021/11/08 14:17:20;;;;;;;11.20;5.07;;;;;;;;;;5102417;28;20479;-71
2021/11/08 14:19:50;;;;;;;8.73;4.53;;;;;;;;;;5090203;28;20451;-71
2021/11/08 14:22:21;;;;;;;11.10;4.23;;;;;;;;;;5099522;27;20466;-73
2021/11/08 14:24:51;;;;;;;12.70;4.80;;;;;;;;;;5096435;28;20483;-73
2021/11/08 14:27:26;;;;;;;6.07;3.97;;;;;;;;;;5096595;28;20452;-72
2021/11/08 14:30:14;;;;;;;5.50;4.20;;;;;;;;;;5104750;28;20450;-72
2021/11/08 14:32:59;;;;;;;11.43;4.93;;;;;;;;;;5097352;28;20452;-72
2021/11/08 14:35:30;;;;;;;6.90;3.03;;;;;;;;;;5095957;27;20459;-72
2021/11/08 14:38:12;;;;;;;5.50;4.00;;;;;;;;;;5095879;28;20457;-73
2021/11/08 14:41:04;;;;;;;3.73;3.23;;;;;;;;;;5097666;28;20483;-70
2021/11/08 14:44:08;;;;;;;13.17;4.47;;;;;;;;;;5105863;28;20571;-72
2021/11/08 14:46:49;;;;;;;9.43;4.40;;;;;;;;;;5103831;28;20606;-71
2021/11/08 14:49:19;;;;;;;8.50;4.97;;;;;;;;;;5100150;28;20718;-71
2021/11/08 14:51:50;;;;;;;7.83;4.73;;;;;;;;;;5106900;28;20446;-70
2021/11/08 14:54:22;;;;;;;6.93;4.30;;;;;;;;;;5108127;28;20451;-72
2021/11/08 14:56:53;;;;;;;4.93;4.37;;;;;;;;;;5114117;28;20439;-71
2021/11/08 14:59:36;;;;;;;9.73;6.63;;;;;;;;;;5114487;28;20458;-71
2021/11/08 15:02:15;;;;;;;5.07;3.60;;;;;;;;;;5121247;28;20940;-71
2021/11/08 15:05:02;;;;;;;5.00;3.83;;;;;;;;;;5121769;28;20486;-73
2021/11/08 15:07:42;;;;;;;7.93;5.00;;;;;;;;;;5119289;28;20442;-72
2021/11/08 15:10:28;;;;;;;8.70;4.80;;;;;;;;;;5120202;28;20460;-72
2021/11/08 15:15:54;;;;;;;8.60;6.10;;;;;;;;;;5114767;28;20558;-72
2021/11/08 15:18:31;;;;;;;6.53;5.07;;;;;;;;;;5119161;28;20542;-72
2021/11/08 15:21:01;;;;;;;6.43;4.57;;;;;;;;;;5116366;28;20506;-72
2021/11/08 15:23:37;;;;;;;9.70;7.63;;;;;;;;;;5110782;28;20553;-72
2021/11/08 15:26:08;;;;;;;14.60;4.70;;;;;;;;;;5097695;28;20552;-71
2021/11/08 15:28:38;;;;;;;8.43;4.57;;;;;;;;;;5097276;28;20444;-72
2021/11/08 15:31:09;;;;;;;8.70;7.43;;;;;;;;;;5098154;28;20487;-72
2021/11/08 15:33:49;;;;;;;6.17;4.40;;;;;;;;;;5094575;28;20539;-72
2021/11/08 15:36:20;;;;;;;5.70;3.93;;;;;;;;;;5098048;28;20455;-70
2021/11/08 15:38:49;;;;;;;4.87;3.60;;;;;;;;;;5095976;28;21103;-72
2021/11/08 15:41:17;;;;;;;4.97;3.63;;;;;;;;;;5095617;28;20487;-72
2021/11/08 15:43:54;;;;;;;7.07;6.13;;;;;;;;;;5098538;28;20543;-72
2021/11/08 15:46:27;;;;;;;7.53;5.80;;;;;;;;;;5103793;28;20454;-72
2021/11/08 15:49:09;;;;;;;7.47;5.00;;;;;;;;;;5119016;28;20541;-73
2021/11/08 15:51:41;;;;;;;5.13;3.80;;;;;;;;;;5118949;28;21042;-71
2021/11/08 15:57:03;;;;;;;9.90;4.73;;;;;;;;;;5099221;28;20496;-72
2021/11/08 15:59:32;;;;;;;12.13;4.40;;;;;;;;;;5098423;28;20439;-72
2021/11/08 16:02:01;;;;;;;7.67;4.43;;;;;;;;;;5102414;28;20906;-73
2021/11/08 16:04:31;;;;;;;7.90;4.80;;;;;;;;;;5118950;28;20530;-71
2021/11/08 16:07:05;;;;;;;7.23;5.37;;;;;;;;;;5117668;28;20710;-70
2021/11/08 16:09:36;;;;;;;10.90;7.10;;;;;;;;;;5116777;28;20546;-71
2021/11/08 16:12:17;;;;;;;6.60;4.43;;;;;;;;;;5116413;28;20463;-71
2021/11/08 16:14:48;;;;;;;5.90;3.30;;;;;;;;;;5117649;28;20499;-73
2021/11/08 16:17:17;;;;;;;8.47;4.70;;;;;;;;;;5116477;28;20451;-71
2021/11/08 16:19:47;;;;;;;6.67;4.03;;;;;;;;;;5118201;28;20435;-73
2021/11/08 16:22:20;;;;;;;8.87;4.97;;;;;;;;;;5114867;28;21057;-71
2021/11/08 16:24:51;;;;;;;7.83;6.60;;;;;;;;;;5119158;28;20519;-70
2021/11/08 16:27:20;;;;;;;11.57;8.73;;;;;;;;;;5099367;28;20460;-73
2021/11/08 16:29:51;;;;;;;16.40;9.33;;;;;;;;;;5109099;28;20504;-73
2021/11/08 16:32:47;;;;;;;10.13;5.07;;;;;;;;;;5117817;28;20879;-72
2021/11/08 16:35:42;;;;;;;25.27;20.50;;;;;;;;;;5105477;28;20534;-71
2021/11/08 16:38:11;;;;;;;5.33;4.50;;;;;;;;;;5096189;28;20571;-71
2021/11/08 16:40:45;;;;;;;7.93;5.50;;;;;;;;;;5096636;28;20464;-72
2021/11/08 16:43:16;;;;;;;7.90;5.53;;;;;;;;;;5092460;28;20469;-71